createdAt,value
2022-12-23T00:00:44.228Z,5.30
2022-12-23T00:03:11.178Z,5.30
2022-12-23T00:05:39.003Z,5.30
2022-12-23T00:08:06.167Z,5.30
2022-12-23T00:10:32.701Z,5.40
2022-12-23T00:13:18.484Z,5.30
2022-12-23T00:15:45.554Z,5.30
2022-12-23T00:18:12.024Z,5.30
2022-12-23T00:20:38.538Z,5.40
2022-12-23T00:23:05.462Z,5.30
2022-12-23T00:25:42.241Z,5.30
2022-12-23T00:28:13.964Z,5.30
2022-12-23T00:30:51.467Z,5.20
2022-12-23T00:33:19.891Z,5.20
2022-12-23T00:35:46.882Z,5.20
2022-12-23T00:38:14.099Z,5.20
2022-12-23T00:40:59.103Z,5.20
2022-12-23T00:43:26.156Z,5.10
2022-12-23T00:45:53.337Z,5.10
2022-12-23T00:48:38.623Z,5.20
2022-12-23T00:51:05.602Z,5.20
2022-12-23T00:53:32.516Z,5.20
2022-12-23T00:55:58.963Z,5.10
2022-12-23T00:58:26.894Z,5.10
2022-12-23T01:01:12.747Z,5.10
2022-12-23T01:03:57.675Z,5.10
2022-12-23T01:06:24.588Z,5.10
2022-12-23T01:08:51.591Z,5.10
2022-12-23T01:11:18.204Z,5.10
2022-12-23T01:13:44.698Z,5.10
2022-12-23T01:16:16.895Z,5.10
2022-12-23T01:18:44.384Z,5.10
2022-12-23T01:21:11.388Z,5.10
2022-12-23T01:23:37.943Z,5.10
2022-12-23T01:26:05.814Z,5.00
2022-12-23T01:28:32.874Z,5.00
2022-12-23T01:31:00.691Z,5.00
2022-12-23T01:33:27.497Z,5.00
2022-12-23T01:36:04.991Z,5.00
2022-12-23T01:38:31.651Z,5.00
2022-12-23T01:40:58.609Z,5.00
2022-12-23T01:43:43.574Z,5.00
2022-12-23T01:46:10.497Z,4.90
2022-12-23T01:48:37.589Z,5.00
2022-12-23T01:51:12.419Z,5.00
2022-12-23T01:53:43.301Z,5.00
2022-12-23T01:56:13.248Z,5.00
2022-12-23T01:58:50.541Z,5.00
2022-12-23T02:01:36.012Z,5.00
2022-12-23T02:04:04.456Z,5.00
2022-12-23T02:06:52.728Z,5.00
2022-12-23T02:09:21.422Z,5.00
2022-12-23T02:12:07.019Z,5.00
2022-12-23T02:14:52.551Z,5.10
2022-12-23T02:17:29.457Z,5.10
2022-12-23T02:20:14.650Z,5.00
2022-12-23T02:23:03.643Z,5.00
2022-12-23T02:25:50.833Z,5.00
2022-12-23T02:28:23.373Z,5.00
2022-12-23T02:31:00.532Z,5.00
2022-12-23T02:33:36.365Z,5.00
2022-12-23T02:36:07.172Z,5.00
2022-12-23T02:38:45.145Z,5.00
2022-12-23T02:41:30.424Z,5.00
2022-12-23T02:44:00.450Z,5.00
2022-12-23T02:46:38.331Z,4.90
2022-12-23T02:49:08.205Z,4.90
2022-12-23T02:51:37.591Z,4.90
2022-12-23T02:54:06.566Z,4.40
2022-12-23T02:56:35.131Z,4.90
2022-12-23T02:59:05.279Z,4.90
2022-12-23T03:01:33.053Z,4.90
2022-12-23T03:04:00.256Z,5.00
2022-12-23T03:06:29.056Z,5.00
2022-12-23T03:08:57.195Z,5.00
2022-12-23T03:11:28.327Z,5.10
2022-12-23T03:14:10.800Z,5.00
2022-12-23T03:16:48.626Z,5.00
2022-12-23T03:19:15.498Z,5.00
2022-12-23T03:21:54.701Z,5.10
2022-12-23T03:24:21.630Z,5.00
2022-12-23T03:26:54.543Z,5.00
2022-12-23T03:29:26.118Z,5.00
2022-12-23T03:31:53.730Z,5.00
2022-12-23T03:34:22.499Z,5.00
2022-12-23T03:36:51.825Z,5.00
2022-12-23T03:39:20.614Z,4.90
2022-12-23T03:41:58.251Z,4.90
2022-12-23T03:44:28.483Z,4.90
2022-12-23T03:46:59.387Z,5.00
2022-12-23T03:49:35.967Z,5.00
2022-12-23T03:52:05.634Z,5.00
2022-12-23T03:54:36.548Z,5.00
2022-12-23T03:57:05.079Z,5.00
2022-12-23T03:59:34.096Z,5.00
2022-12-23T04:02:06.774Z,5.00
2022-12-23T04:04:42.807Z,5.00
2022-12-23T04:07:09.676Z,5.00
2022-12-23T04:09:36.660Z,5.00
2022-12-23T04:12:03.796Z,5.00
2022-12-23T04:14:30.307Z,5.00
2022-12-23T04:16:58.284Z,5.00
2022-12-23T04:19:25.411Z,5.00
2022-12-23T04:21:52.935Z,5.00
2022-12-23T04:24:19.403Z,5.00
2022-12-23T04:26:46.317Z,5.00
2022-12-23T04:29:12.785Z,5.10
2022-12-23T04:31:39.747Z,5.10
2022-12-23T04:34:06.663Z,5.10
2022-12-23T04:36:33.326Z,5.10
2022-12-23T04:39:00.218Z,5.10
2022-12-23T04:41:27.167Z,5.10
2022-12-23T04:43:54.113Z,5.10
2022-12-23T04:46:20.854Z,5.10
2022-12-23T04:48:47.924Z,5.00
2022-12-23T04:51:14.458Z,5.10
2022-12-23T04:53:41.350Z,5.10
2022-12-23T04:56:07.909Z,5.10
2022-12-23T04:58:34.839Z,5.10
2022-12-23T05:01:03.080Z,5.00
2022-12-23T05:03:30.414Z,5.10
2022-12-23T05:05:57.284Z,5.10
2022-12-23T05:08:23.867Z,5.10
2022-12-23T05:10:50.784Z,5.00
2022-12-23T05:13:17.256Z,4.90
2022-12-23T05:15:44.973Z,5.00
2022-12-23T05:18:11.680Z,5.00
2022-12-23T05:20:38.556Z,5.00
2022-12-23T05:23:05.467Z,5.10
2022-12-23T05:25:35.882Z,5.00
2022-12-23T05:28:03.119Z,5.00
2022-12-23T05:30:29.576Z,5.00
2022-12-23T05:32:56.877Z,4.90
2022-12-23T05:35:24.138Z,4.90
2022-12-23T05:37:51.328Z,4.90
2022-12-23T05:40:23.272Z,4.90
2022-12-23T05:42:51.378Z,4.80
2022-12-23T05:45:18.295Z,4.80
2022-12-23T05:47:44.766Z,4.80
2022-12-23T05:50:11.889Z,4.80
2022-12-23T05:52:38.808Z,5.00
2022-12-23T05:55:06.297Z,4.70
2022-12-23T05:57:32.767Z,4.80
2022-12-23T05:59:59.685Z,4.80
2022-12-23T06:02:26.324Z,4.90
2022-12-23T06:04:53.284Z,4.90
2022-12-23T06:07:19.736Z,5.00
2022-12-23T06:09:46.697Z,4.90
2022-12-23T06:12:13.142Z,4.90
2022-12-23T06:14:40.079Z,5.10
2022-12-23T06:17:06.571Z,5.10
2022-12-23T06:19:33.559Z,5.10
2022-12-23T06:22:00.500Z,5.10
2022-12-23T06:24:26.943Z,5.20
2022-12-23T06:26:57.282Z,5.20
2022-12-23T06:29:25.253Z,5.20
2022-12-23T06:31:52.238Z,5.20
2022-12-23T06:34:18.715Z,5.20
2022-12-23T06:36:45.635Z,5.20
2022-12-23T06:39:12.622Z,5.30
2022-12-23T06:41:39.093Z,5.20
2022-12-23T06:44:06.045Z,5.30
2022-12-23T06:46:33.055Z,5.30
2022-12-23T06:48:59.956Z,5.40
2022-12-23T06:51:29.561Z,5.50
2022-12-23T06:53:56.184Z,5.50
2022-12-23T06:56:23.063Z,5.50
2022-12-23T06:58:49.743Z,5.50
2022-12-23T07:01:17.163Z,5.50
2022-12-23T07:03:43.703Z,5.50
2022-12-23T07:06:10.242Z,5.40
2022-12-23T07:08:37.137Z,5.50
2022-12-23T07:11:04.983Z,5.50
2022-12-23T07:13:32.208Z,5.50
2022-12-23T07:15:59.683Z,5.50
2022-12-23T07:18:26.152Z,5.50
2022-12-23T07:20:52.624Z,5.50
2022-12-23T07:23:19.534Z,5.40
2022-12-23T07:25:49.827Z,5.40
2022-12-23T07:28:16.286Z,5.40
2022-12-23T07:30:43.416Z,5.30
2022-12-23T07:33:09.879Z,5.30
2022-12-23T07:35:36.399Z,5.30
2022-12-23T07:38:02.995Z,5.40
2022-12-23T07:40:29.478Z,5.30
2022-12-23T07:43:00.838Z,5.30
2022-12-23T07:45:28.086Z,5.40
2022-12-23T07:47:55.764Z,5.40
2022-12-23T07:50:22.795Z,5.30
2022-12-23T07:52:49.288Z,5.50
2022-12-23T07:55:15.759Z,5.50
2022-12-23T07:57:42.704Z,5.70
2022-12-23T08:00:13.112Z,5.80
2022-12-23T08:02:41.020Z,5.90
2022-12-23T08:05:08.365Z,5.90
2022-12-23T08:07:34.948Z,6.00
2022-12-23T08:10:01.940Z,6.00
2022-12-23T08:12:28.399Z,6.10
2022-12-23T08:14:54.951Z,6.10
2022-12-23T08:17:22.139Z,6.10
2022-12-23T08:19:49.915Z,6.20
2022-12-23T08:22:16.748Z,6.20
2022-12-23T08:24:43.659Z,6.20
2022-12-23T08:27:10.803Z,6.30
2022-12-23T08:29:39.092Z,6.30
2022-12-23T08:32:05.999Z,6.30
2022-12-23T08:34:33.360Z,6.40
2022-12-23T08:36:59.817Z,6.40
2022-12-23T08:39:26.442Z,6.40
2022-12-23T08:41:54.015Z,6.40
2022-12-23T08:44:20.580Z,6.40
2022-12-23T08:46:47.184Z,6.50
2022-12-23T08:49:14.232Z,6.60
2022-12-23T08:51:40.754Z,6.60
2022-12-23T08:54:07.645Z,6.60
2022-12-23T08:56:36.202Z,6.60
2022-12-23T08:59:03.400Z,6.60
2022-12-23T09:01:32.633Z,6.60
2022-12-23T09:04:02.102Z,6.60
2022-12-23T09:06:31.322Z,6.50
2022-12-23T09:08:58.751Z,6.60
2022-12-23T09:11:26.491Z,6.50
2022-12-23T09:13:53.429Z,6.40
2022-12-23T09:16:20.341Z,6.40
2022-12-23T09:18:47.268Z,6.30
2022-12-23T09:21:14.720Z,6.30
2022-12-23T09:23:41.655Z,6.40
2022-12-23T09:26:08.696Z,6.40
2022-12-23T09:28:35.150Z,6.50
2022-12-23T09:31:09.268Z,6.50
2022-12-23T09:33:35.935Z,6.60
2022-12-23T09:36:04.129Z,6.60
2022-12-23T09:38:31.110Z,6.50
2022-12-23T09:41:06.323Z,6.60
2022-12-23T09:43:46.249Z,6.70
2022-12-23T09:46:18.815Z,6.70
2022-12-23T09:48:56.956Z,6.70
2022-12-23T09:51:23.979Z,6.70
2022-12-23T09:54:14.946Z,6.70
2022-12-23T09:56:54.849Z,6.80
2022-12-23T09:59:51.340Z,6.70
2022-12-23T10:02:30.030Z,6.70
2022-12-23T10:05:05.774Z,6.70
2022-12-23T10:08:08.567Z,6.70
2022-12-23T10:10:37.384Z,6.80
2022-12-23T10:13:05.875Z,6.90
2022-12-23T10:15:35.554Z,6.90
2022-12-23T10:18:05.221Z,6.90
2022-12-23T10:20:34.724Z,7.00
2022-12-23T10:23:01.629Z,7.00
2022-12-23T10:25:40.967Z,7.10
2022-12-23T10:28:10.060Z,7.30
2022-12-23T10:31:17.134Z,7.40
2022-12-23T10:33:36.171Z,7.50
2022-12-23T10:36:23.606Z,7.50
2022-12-23T10:38:58.541Z,7.50
2022-12-23T10:41:24.968Z,7.50
2022-12-23T10:44:10.521Z,7.60
2022-12-23T10:46:56.034Z,7.70
2022-12-23T10:49:34.991Z,7.70
2022-12-23T10:52:22.191Z,7.70
2022-12-23T10:54:49.657Z,7.60
2022-12-23T10:57:17.795Z,7.50
2022-12-23T10:59:44.666Z,7.60
2022-12-23T11:02:12.223Z,7.50
2022-12-23T11:04:43.038Z,7.50
2022-12-23T11:10:12.922Z,7.60
2022-12-23T11:12:42.701Z,7.60
2022-12-23T11:15:35.699Z,7.60
2022-12-23T11:18:16.450Z,7.70
2022-12-23T11:20:44.241Z,7.70
2022-12-23T11:23:25.364Z,7.70
2022-12-23T11:25:59.878Z,7.70
2022-12-23T11:28:26.847Z,7.80
2022-12-23T11:30:56.607Z,7.90
2022-12-23T11:33:31.967Z,7.80
2022-12-23T11:36:08.055Z,8.00
2022-12-23T11:38:36.146Z,8.00
2022-12-23T11:41:04.247Z,8.00
2022-12-23T11:43:31.154Z,8.00
2022-12-23T11:46:14.503Z,8.10
2022-12-23T11:48:41.103Z,8.10
2022-12-23T11:51:07.934Z,8.20
2022-12-23T11:53:36.945Z,8.30
2022-12-23T11:56:07.006Z,8.30
2022-12-23T11:58:39.993Z,8.30
2022-12-23T12:01:08.341Z,8.40
2022-12-23T12:03:39.691Z,8.40
2022-12-23T12:06:07.063Z,8.40
2022-12-23T12:08:36.250Z,8.30
2022-12-23T12:11:25.129Z,8.30
2022-12-23T12:13:58.182Z,8.30
2022-12-23T12:16:30.575Z,8.20
2022-12-23T12:19:17.013Z,8.20
2022-12-23T12:21:45.080Z,8.20
2022-12-23T12:24:20.635Z,8.20
2022-12-23T12:26:51.553Z,8.20
2022-12-23T12:29:30.511Z,8.20
2022-12-23T12:31:58.321Z,8.10
2022-12-23T12:34:32.091Z,8.00
2022-12-23T12:36:58.984Z,7.90
2022-12-23T12:39:36.234Z,7.90
2022-12-23T12:42:10.744Z,7.80
2022-12-23T12:44:43.707Z,7.90
2022-12-23T12:47:44.693Z,7.70
2022-12-23T12:50:08.132Z,7.60
2022-12-23T12:52:39.071Z,7.60
2022-12-23T12:55:19.343Z,7.60
2022-12-23T12:57:45.928Z,7.60
2022-12-23T13:00:17.397Z,7.60
2022-12-23T13:03:00.453Z,7.60
2022-12-23T13:05:33.082Z,7.60
2022-12-23T13:08:03.048Z,7.60
2022-12-23T13:10:29.471Z,7.60
2022-12-23T13:13:19.659Z,7.70
2022-12-23T13:15:46.081Z,7.60
2022-12-23T13:18:25.080Z,7.60
2022-12-23T13:20:59.683Z,7.60
2022-12-23T13:23:43.664Z,7.60
2022-12-23T13:26:14.242Z,7.60
2022-12-23T13:28:47.619Z,7.60
2022-12-23T13:31:30.703Z,7.60
2022-12-23T13:34:02.138Z,7.50
2022-12-23T13:36:47.021Z,7.50
2022-12-23T13:39:13.521Z,7.40
2022-12-23T13:41:42.759Z,7.40
2022-12-23T13:44:10.770Z,7.30
2022-12-23T13:46:48.132Z,7.30
2022-12-23T13:49:33.610Z,7.30
2022-12-23T13:52:19.019Z,7.20
2022-12-23T13:55:04.293Z,7.20
2022-12-23T13:57:40.261Z,7.20
2022-12-23T14:00:17.067Z,7.10
2022-12-23T14:03:02.284Z,7.10
2022-12-23T14:05:41.857Z,7.10
2022-12-23T14:08:20.882Z,7.00
2022-12-23T14:10:58.826Z,7.00
2022-12-23T14:13:27.575Z,7.00
2022-12-23T14:15:54.177Z,6.90
2022-12-23T14:18:33.631Z,6.90
2022-12-23T14:21:00.493Z,6.90
2022-12-23T14:23:33.630Z,6.80
2022-12-23T14:26:06.336Z,6.80
2022-12-23T14:28:46.448Z,6.70
2022-12-23T14:31:31.904Z,6.60
2022-12-23T14:34:05.472Z,6.60
2022-12-23T14:36:32.656Z,6.60
2022-12-23T14:39:11.410Z,6.50
2022-12-23T14:41:39.622Z,6.50
2022-12-23T14:44:22.068Z,6.30
2022-12-23T14:46:48.694Z,6.30
2022-12-23T14:49:39.659Z,6.30
2022-12-23T14:52:26.358Z,6.20
2022-12-23T14:55:27.916Z,6.10
2022-12-23T14:57:39.810Z,6.10
2022-12-23T15:00:07.159Z,6.00
2022-12-23T15:02:36.815Z,6.00
2022-12-23T15:05:04.331Z,6.00
2022-12-23T15:07:32.847Z,6.10
2022-12-23T15:10:08.507Z,6.00
2022-12-23T15:12:36.899Z,6.10
2022-12-23T15:15:06.152Z,6.10
2022-12-23T15:17:35.165Z,6.20
2022-12-23T15:20:16.326Z,6.10
2022-12-23T15:22:43.868Z,6.10
2022-12-23T15:25:19.597Z,6.10
2022-12-23T15:27:46.161Z,6.10
2022-12-23T15:30:16.117Z,6.00
2022-12-23T15:32:44.012Z,5.90
2022-12-23T15:35:14.272Z,5.90
2022-12-23T15:37:40.732Z,5.90
2022-12-23T15:40:22.519Z,6.00
2022-12-23T15:42:49.553Z,6.00
2022-12-23T15:45:36.327Z,6.00
2022-12-23T15:48:03.841Z,6.10
2022-12-23T15:50:31.149Z,6.10
2022-12-23T15:52:59.512Z,6.10
2022-12-23T15:55:30.770Z,6.20
2022-12-23T15:57:58.407Z,6.20
2022-12-23T16:00:27.254Z,6.10
2022-12-23T16:03:01.010Z,6.10
2022-12-23T16:05:29.536Z,6.20
2022-12-23T16:08:16.415Z,6.20
2022-12-23T16:11:03.337Z,6.20
2022-12-23T16:13:30.982Z,6.10
2022-12-23T16:16:16.370Z,6.10
2022-12-23T16:18:47.510Z,6.10
2022-12-23T16:21:14.932Z,6.10
2022-12-23T16:23:48.783Z,6.10
2022-12-23T16:26:15.236Z,6.10
2022-12-23T16:28:46.659Z,6.00
2022-12-23T16:31:16.247Z,6.00
2022-12-23T16:33:43.142Z,6.00
2022-12-23T16:36:32.302Z,6.10
2022-12-23T16:38:58.759Z,6.00
2022-12-23T16:41:25.759Z,6.10
2022-12-23T16:43:53.044Z,6.00
2022-12-23T16:46:21.353Z,6.10
2022-12-23T16:48:49.487Z,6.10
2022-12-23T16:51:20.816Z,6.10
2022-12-23T16:53:48.062Z,6.10
2022-12-23T16:56:15.975Z,6.10
2022-12-23T16:58:42.583Z,6.20
2022-12-23T17:01:27.689Z,6.20
2022-12-23T17:03:56.349Z,6.20
2022-12-23T17:06:23.180Z,6.20
2022-12-23T17:08:51.113Z,6.20
2022-12-23T17:11:19.056Z,6.20
2022-12-23T17:13:46.150Z,6.20
2022-12-23T17:16:16.985Z,6.30
2022-12-23T17:18:44.889Z,6.20
2022-12-23T17:21:18.203Z,6.10
2022-12-23T17:23:45.252Z,6.20
2022-12-23T17:26:12.186Z,7.20
2022-12-23T17:28:38.659Z,6.20
2022-12-23T17:31:13.766Z,6.20
2022-12-23T17:33:41.709Z,6.20
2022-12-23T17:36:10.455Z,6.30
2022-12-23T17:38:37.443Z,6.30
2022-12-23T17:41:04.504Z,6.20
2022-12-23T17:43:31.504Z,6.30
2022-12-23T17:45:57.987Z,6.30
2022-12-23T17:48:31.132Z,6.30
2022-12-23T17:50:58.052Z,6.30
2022-12-23T17:53:25.013Z,6.30
2022-12-23T17:55:51.455Z,6.20
2022-12-23T17:58:18.820Z,6.20
2022-12-23T18:00:45.944Z,6.20
2022-12-23T18:03:23.591Z,6.20
2022-12-23T18:05:55.658Z,6.20
2022-12-23T18:08:28.019Z,6.20
2022-12-23T18:10:55.014Z,6.10
2022-12-23T18:13:21.922Z,6.20
2022-12-23T18:15:48.479Z,6.20
2022-12-23T18:18:22.202Z,6.10
2022-12-23T18:20:54.844Z,6.10
2022-12-23T18:23:23.276Z,6.20
2022-12-23T18:25:49.806Z,6.20
2022-12-23T18:28:16.823Z,6.10
2022-12-23T18:30:43.444Z,6.20
2022-12-23T18:33:10.885Z,6.10
2022-12-23T18:35:44.673Z,6.20
2022-12-23T18:38:12.144Z,6.10
2022-12-23T18:40:39.314Z,6.10
2022-12-23T18:43:06.138Z,6.10
2022-12-23T18:45:34.646Z,6.10
2022-12-23T18:48:02.593Z,6.10
2022-12-23T18:50:29.259Z,6.10
2022-12-23T18:52:56.138Z,6.10
2022-12-23T18:55:23.308Z,6.00
2022-12-23T18:57:50.750Z,6.10
2022-12-23T19:00:20.647Z,6.10
2022-12-23T19:02:48.454Z,6.10
2022-12-23T19:05:17.703Z,6.10
2022-12-23T19:07:44.516Z,6.00
2022-12-23T19:10:14.630Z,6.10
2022-12-23T19:12:41.088Z,6.00
2022-12-23T19:15:08.232Z,6.00
2022-12-23T19:17:34.700Z,6.00
2022-12-23T19:20:01.184Z,6.00
2022-12-23T19:22:28.081Z,6.00
2022-12-23T19:25:05.136Z,6.00
2022-12-23T19:27:32.657Z,5.90
2022-12-23T19:29:59.551Z,5.90
2022-12-23T19:32:26.283Z,6.00
2022-12-23T19:34:53.718Z,5.90
2022-12-23T19:37:20.647Z,5.90
2022-12-23T19:39:47.129Z,5.90
2022-12-23T19:42:15.028Z,5.90
2022-12-23T19:44:42.193Z,5.90
2022-12-23T19:47:08.645Z,5.90
2022-12-23T19:49:35.594Z,5.90
2022-12-23T19:52:02.140Z,5.90
2022-12-23T19:54:29.045Z,5.90
2022-12-23T19:56:56.104Z,5.80
2022-12-23T19:59:22.808Z,5.90
2022-12-23T20:01:49.768Z,5.80
2022-12-23T20:04:16.445Z,5.80
2022-12-23T20:06:43.015Z,5.80
2022-12-23T20:09:12.256Z,5.80
2022-12-23T20:11:44.017Z,5.80
2022-12-23T20:14:11.401Z,5.80
2022-12-23T20:16:38.444Z,5.80
2022-12-23T20:19:05.258Z,5.80
2022-12-23T20:21:32.055Z,5.70
2022-12-23T20:23:59.236Z,5.70
2022-12-23T20:26:27.086Z,5.70
2022-12-23T20:28:54.000Z,5.70
2022-12-23T20:31:22.115Z,5.70
2022-12-23T20:33:49.443Z,5.70
2022-12-23T20:36:18.053Z,5.70
2022-12-23T20:38:45.312Z,5.70
2022-12-23T20:41:13.815Z,5.60
2022-12-23T20:43:40.295Z,5.60
2022-12-23T20:46:07.792Z,5.70
2022-12-23T20:48:35.239Z,5.60
2022-12-23T20:51:10.065Z,5.70
2022-12-23T20:53:37.236Z,5.60
2022-12-23T20:56:04.398Z,5.70
2022-12-23T20:58:50.215Z,5.60
2022-12-23T21:01:16.818Z,5.60
2022-12-23T21:03:43.766Z,5.70
2022-12-23T21:06:10.375Z,5.60
2022-12-23T21:08:38.303Z,5.60
2022-12-23T21:11:05.294Z,5.60
2022-12-23T21:13:32.271Z,5.60
2022-12-23T21:16:02.633Z,5.60
2022-12-23T21:18:29.304Z,5.60
2022-12-23T21:20:59.868Z,5.60
2022-12-23T21:23:26.336Z,5.60
2022-12-23T21:26:03.935Z,5.60
2022-12-23T21:28:30.391Z,5.60
2022-12-23T21:30:56.919Z,5.60
2022-12-23T21:33:23.386Z,5.60
2022-12-23T21:35:50.279Z,5.60
2022-12-23T21:38:16.958Z,5.60
2022-12-23T21:40:43.408Z,5.60
2022-12-23T21:43:10.312Z,5.60
2022-12-23T21:45:36.821Z,5.60
2022-12-23T21:48:04.091Z,5.60
2022-12-23T21:50:30.589Z,5.60
2022-12-23T21:52:57.700Z,5.60
2022-12-23T21:55:24.172Z,5.60
2022-12-23T21:57:50.870Z,5.60
2022-12-23T22:00:20.184Z,5.60
2022-12-23T22:02:46.649Z,5.60
2022-12-23T22:05:13.111Z,5.60
2022-12-23T22:07:40.209Z,5.60
2022-12-23T22:10:07.128Z,5.60
2022-12-23T22:12:33.578Z,5.60
2022-12-23T22:15:02.732Z,5.60
2022-12-23T22:17:31.903Z,5.60
2022-12-23T22:19:58.812Z,5.50
2022-12-23T22:22:25.716Z,5.50
2022-12-23T22:24:52.175Z,5.50
2022-12-23T22:27:19.080Z,5.50
2022-12-23T22:29:46.007Z,5.50
2022-12-23T22:32:12.479Z,5.50
2022-12-23T22:34:38.936Z,5.50
2022-12-23T22:37:05.431Z,5.50
2022-12-23T22:39:31.884Z,5.50
2022-12-23T22:41:58.424Z,5.50
2022-12-23T22:44:25.347Z,5.50
2022-12-23T22:46:52.003Z,5.50
2022-12-23T22:49:18.961Z,5.50
2022-12-23T22:51:45.516Z,5.50
2022-12-23T22:54:12.462Z,5.50
2022-12-23T22:56:41.932Z,5.50
2022-12-23T22:59:13.588Z,5.50
2022-12-23T23:01:40.692Z,5.40
2022-12-23T23:04:07.840Z,5.40
2022-12-23T23:06:38.243Z,5.50
2022-12-23T23:09:06.177Z,5.40
2022-12-23T23:11:32.659Z,5.40
2022-12-23T23:13:59.602Z,5.40
2022-12-23T23:16:26.676Z,5.40
2022-12-23T23:18:53.801Z,5.30
2022-12-23T23:21:20.864Z,5.40
2022-12-23T23:23:47.905Z,5.40
2022-12-23T23:26:14.511Z,5.40
2022-12-23T23:28:41.648Z,5.70
2022-12-23T23:33:55.622Z,5.40
2022-12-23T23:36:22.106Z,5.40
2022-12-23T23:38:49.057Z,5.40
2022-12-23T23:41:22.233Z,5.30
2022-12-23T23:43:49.649Z,5.30
2022-12-23T23:46:16.216Z,5.30
2022-12-23T23:48:43.207Z,5.40
2022-12-23T23:51:10.177Z,5.30
2022-12-23T23:53:36.670Z,5.30
2022-12-23T23:56:04.412Z,5.30
2022-12-23T23:58:31.064Z,5.30
